sensor_id;sensor_type;location;lat;lon;timestamp;temperature;humidity
20481;DHT22;10399;50.754;3.366;2023-03-04T00:00:09;8.40;99.90
20481;DHT22;10399;50.754;3.366;2023-03-04T00:02:36;8.40;99.90
20481;DHT22;10399;50.754;3.366;2023-03-04T00:05:04;8.50;99.90
20481;DHT22;10399;50.754;3.366;2023-03-04T00:07:31;8.60;99.90
20481;DHT22;10399;50.754;3.366;2023-03-04T00:09:58;8.40;99.90
20481;DHT22;10399;50.754;3.366;2023-03-04T00:12:25;8.50;99.90
20481;DHT22;10399;50.754;3.366;2023-03-04T00:14:53;8.40;99.90
20481;DHT22;10399;50.754;3.366;2023-03-04T00:17:25;8.20;99.90
20481;DHT22;10399;50.754;3.366;2023-03-04T00:19:52;8.20;99.90
20481;DHT22;10399;50.754;3.366;2023-03-04T00:22:19;8.30;99.90
20481;DHT22;10399;50.754;3.366;2023-03-04T00:24:46;8.30;99.90
20481;DHT22;10399;50.754;3.366;2023-03-04T00:27:13;8.30;99.90
20481;DHT22;10399;50.754;3.366;2023-03-04T00:29:40;8.40;99.90
20481;DHT22;10399;50.754;3.366;2023-03-04T00:32:07;8.30;99.90
20481;DHT22;10399;50.754;3.366;2023-03-04T00:34:35;8.30;99.90
20481;DHT22;10399;50.754;3.366;2023-03-04T00:37:02;8.40;99.90
20481;DHT22;10399;50.754;3.366;2023-03-04T00:39:29;8.50;99.90
20481;DHT22;10399;50.754;3.366;2023-03-04T00:41:56;8.40;99.90
20481;DHT22;10399;50.754;3.366;2023-03-04T00:44:23;8.40;99.90
20481;DHT22;10399;50.754;3.366;2023-03-04T00:46:50;8.40;99.90
20481;DHT22;10399;50.754;3.366;2023-03-04T00:49:18;8.50;99.90
20481;DHT22;10399;50.754;3.366;2023-03-04T00:51:45;8.40;99.90
20481;DHT22;10399;50.754;3.366;2023-03-04T00:54:12;8.40;99.90
20481;DHT22;10399;50.754;3.366;2023-03-04T00:56:39;8.50;99.90
20481;DHT22;10399;50.754;3.366;2023-03-04T00:59:06;8.50;99.90
20481;DHT22;10399;50.754;3.366;2023-03-04T01:01:33;8.50;99.90
20481;DHT22;10399;50.754;3.366;2023-03-04T01:04:00;8.40;99.90
20481;DHT22;10399;50.754;3.366;2023-03-04T01:06:27;8.50;99.90
20481;DHT22;10399;50.754;3.366;2023-03-04T01:08:54;8.40;99.90
20481;DHT22;10399;50.754;3.366;2023-03-04T01:11:21;8.30;99.90
20481;DHT22;10399;50.754;3.366;2023-03-04T01:13:48;8.30;99.90
20481;DHT22;10399;50.754;3.366;2023-03-04T01:16:15;8.30;99.90
20481;DHT22;10399;50.754;3.366;2023-03-04T01:18:42;8.20;99.90
20481;DHT22;10399;50.754;3.366;2023-03-04T01:21:09;8.10;99.90
20481;DHT22;10399;50.754;3.366;2023-03-04T01:23:36;8.10;99.90
20481;DHT22;10399;50.754;3.366;2023-03-04T01:26:03;8.30;99.90
20481;DHT22;10399;50.754;3.366;2023-03-04T01:28:30;8.30;99.90
20481;DHT22;10399;50.754;3.366;2023-03-04T01:31:02;8.30;99.90
20481;DHT22;10399;50.754;3.366;2023-03-04T01:33:30;8.30;99.90
20481;DHT22;10399;50.754;3.366;2023-03-04T01:35:57;8.30;99.90
20481;DHT22;10399;50.754;3.366;2023-03-04T01:38:25;8.30;99.90
20481;DHT22;10399;50.754;3.366;2023-03-04T01:40:52;8.30;99.90
20481;DHT22;10399;50.754;3.366;2023-03-04T01:43:26;8.20;99.90
20481;DHT22;10399;50.754;3.366;2023-03-04T01:45:54;8.30;99.90
20481;DHT22;10399;50.754;3.366;2023-03-04T01:48:26;8.20;99.90
20481;DHT22;10399;50.754;3.366;2023-03-04T01:50:53;8.10;99.90
20481;DHT22;10399;50.754;3.366;2023-03-04T01:53:25;8.30;99.90
20481;DHT22;10399;50.754;3.366;2023-03-04T01:55:59;8.20;99.90
20481;DHT22;10399;50.754;3.366;2023-03-04T01:58:31;8.30;99.90
20481;DHT22;10399;50.754;3.366;2023-03-04T02:00:59;8.30;99.90
20481;DHT22;10399;50.754;3.366;2023-03-04T02:03:26;8.40;99.90
20481;DHT22;10399;50.754;3.366;2023-03-04T02:05:54;8.40;99.90
20481;DHT22;10399;50.754;3.366;2023-03-04T02:08:23;8.40;99.90
20481;DHT22;10399;50.754;3.366;2023-03-04T02:10:51;8.50;99.90
20481;DHT22;10399;50.754;3.366;2023-03-04T02:13:18;8.40;99.90
20481;DHT22;10399;50.754;3.366;2023-03-04T02:15:46;8.40;99.90
20481;DHT22;10399;50.754;3.366;2023-03-04T02:18:19;8.30;99.90
20481;DHT22;10399;50.754;3.366;2023-03-04T02:26:43;8.40;99.90
20481;DHT22;10399;50.754;3.366;2023-03-04T02:29:14;8.30;99.90
20481;DHT22;10399;50.754;3.366;2023-03-04T02:31:42;8.30;99.90
20481;DHT22;10399;50.754;3.366;2023-03-04T02:36:50;8.30;99.90
20481;DHT22;10399;50.754;3.366;2023-03-04T02:42:00;8.40;99.90
20481;DHT22;10399;50.754;3.366;2023-03-04T02:44:30;8.30;99.90
20481;DHT22;10399;50.754;3.366;2023-03-04T02:46:58;8.40;99.90
20481;DHT22;10399;50.754;3.366;2023-03-04T02:49:27;8.40;99.90
20481;DHT22;10399;50.754;3.366;2023-03-04T02:52:33;8.30;99.90
20481;DHT22;10399;50.754;3.366;2023-03-04T02:54:53;8.10;99.90
20481;DHT22;10399;50.754;3.366;2023-03-04T02:57:20;8.20;99.90
20481;DHT22;10399;50.754;3.366;2023-03-04T02:59:46;8.30;99.90
20481;DHT22;10399;50.754;3.366;2023-03-04T03:02:13;8.40;99.90
20481;DHT22;10399;50.754;3.366;2023-03-04T03:04:40;8.40;99.90
20481;DHT22;10399;50.754;3.366;2023-03-04T03:07:08;8.30;99.90
20481;DHT22;10399;50.754;3.366;2023-03-04T03:09:35;8.30;99.90
20481;DHT22;10399;50.754;3.366;2023-03-04T03:12:02;8.40;99.90
20481;DHT22;10399;50.754;3.366;2023-03-04T03:14:29;8.30;99.90
20481;DHT22;10399;50.754;3.366;2023-03-04T03:16:56;8.40;99.90
20481;DHT22;10399;50.754;3.366;2023-03-04T03:19:23;8.30;99.90
20481;DHT22;10399;50.754;3.366;2023-03-04T03:21:50;8.40;99.90
20481;DHT22;10399;50.754;3.366;2023-03-04T03:24:23;8.40;99.90
20481;DHT22;10399;50.754;3.366;2023-03-04T03:26:50;8.60;99.90
20481;DHT22;10399;50.754;3.366;2023-03-04T03:29:17;8.60;99.90
20481;DHT22;10399;50.754;3.366;2023-03-04T03:31:44;8.40;99.90
20481;DHT22;10399;50.754;3.366;2023-03-04T03:34:12;8.30;99.90
20481;DHT22;10399;50.754;3.366;2023-03-04T03:36:39;8.40;99.90
20481;DHT22;10399;50.754;3.366;2023-03-04T03:39:06;8.30;99.90
20481;DHT22;10399;50.754;3.366;2023-03-04T03:41:33;8.40;99.90
20481;DHT22;10399;50.754;3.366;2023-03-04T03:43:59;8.30;99.90
20481;DHT22;10399;50.754;3.366;2023-03-04T03:46:27;8.30;99.90
20481;DHT22;10399;50.754;3.366;2023-03-04T03:48:55;8.30;99.90
20481;DHT22;10399;50.754;3.366;2023-03-04T03:51:22;8.30;99.90
20481;DHT22;10399;50.754;3.366;2023-03-04T03:53:49;8.40;99.90
20481;DHT22;10399;50.754;3.366;2023-03-04T03:56:16;8.30;99.90
20481;DHT22;10399;50.754;3.366;2023-03-04T03:58:43;8.30;99.90
20481;DHT22;10399;50.754;3.366;2023-03-04T04:01:10;8.30;99.90
20481;DHT22;10399;50.754;3.366;2023-03-04T04:03:38;8.40;99.90
20481;DHT22;10399;50.754;3.366;2023-03-04T04:06:05;8.40;99.90
20481;DHT22;10399;50.754;3.366;2023-03-04T04:08:32;8.50;99.90
20481;DHT22;10399;50.754;3.366;2023-03-04T04:10:59;8.40;99.90
20481;DHT22;10399;50.754;3.366;2023-03-04T04:13:26;8.30;99.90
20481;DHT22;10399;50.754;3.366;2023-03-04T04:15:53;8.40;99.90
20481;DHT22;10399;50.754;3.366;2023-03-04T04:18:20;8.40;99.90
20481;DHT22;10399;50.754;3.366;2023-03-04T04:20:47;8.40;99.90
20481;DHT22;10399;50.754;3.366;2023-03-04T04:23:14;8.50;99.90
20481;DHT22;10399;50.754;3.366;2023-03-04T04:25:41;8.60;99.90
20481;DHT22;10399;50.754;3.366;2023-03-04T04:28:08;8.50;99.90
20481;DHT22;10399;50.754;3.366;2023-03-04T04:30:35;8.50;99.90
20481;DHT22;10399;50.754;3.366;2023-03-04T04:33:02;8.50;99.90
20481;DHT22;10399;50.754;3.366;2023-03-04T04:35:34;8.40;99.90
20481;DHT22;10399;50.754;3.366;2023-03-04T04:38:07;8.40;99.90
20481;DHT22;10399;50.754;3.366;2023-03-04T04:40:34;8.40;99.90
20481;DHT22;10399;50.754;3.366;2023-03-04T04:43:02;8.40;99.90
20481;DHT22;10399;50.754;3.366;2023-03-04T04:45:29;8.40;99.90
20481;DHT22;10399;50.754;3.366;2023-03-04T04:47:56;8.30;99.90
20481;DHT22;10399;50.754;3.366;2023-03-04T04:50:24;8.40;99.90
20481;DHT22;10399;50.754;3.366;2023-03-04T04:52:51;8.40;99.90
20481;DHT22;10399;50.754;3.366;2023-03-04T04:55:18;8.40;99.90
20481;DHT22;10399;50.754;3.366;2023-03-04T04:57:45;8.30;99.90
20481;DHT22;10399;50.754;3.366;2023-03-04T05:00:13;8.50;99.90
20481;DHT22;10399;50.754;3.366;2023-03-04T05:02:40;8.40;99.90
20481;DHT22;10399;50.754;3.366;2023-03-04T05:05:07;8.40;99.90
20481;DHT22;10399;50.754;3.366;2023-03-04T05:07:34;8.40;99.90
20481;DHT22;10399;50.754;3.366;2023-03-04T05:10:02;8.40;99.90
20481;DHT22;10399;50.754;3.366;2023-03-04T05:12:29;8.40;99.90
20481;DHT22;10399;50.754;3.366;2023-03-04T05:14:56;8.30;99.90
20481;DHT22;10399;50.754;3.366;2023-03-04T05:17:23;8.30;99.90
20481;DHT22;10399;50.754;3.366;2023-03-04T05:19:50;8.40;99.90
20481;DHT22;10399;50.754;3.366;2023-03-04T05:22:17;8.30;99.90
20481;DHT22;10399;50.754;3.366;2023-03-04T05:24:44;8.40;99.90
20481;DHT22;10399;50.754;3.366;2023-03-04T05:27:11;8.30;99.90
20481;DHT22;10399;50.754;3.366;2023-03-04T05:29:38;8.20;99.90
20481;DHT22;10399;50.754;3.366;2023-03-04T05:32:04;8.10;99.90
20481;DHT22;10399;50.754;3.366;2023-03-04T05:34:31;8.30;99.90
20481;DHT22;10399;50.754;3.366;2023-03-04T05:36:58;8.30;99.90
20481;DHT22;10399;50.754;3.366;2023-03-04T05:39:25;8.30;99.90
20481;DHT22;10399;50.754;3.366;2023-03-04T05:41:52;8.30;99.90
20481;DHT22;10399;50.754;3.366;2023-03-04T05:44:19;8.20;99.90
20481;DHT22;10399;50.754;3.366;2023-03-04T05:46:46;8.20;99.90
20481;DHT22;10399;50.754;3.366;2023-03-04T05:49:13;8.30;99.90
20481;DHT22;10399;50.754;3.366;2023-03-04T05:51:40;8.40;99.90
20481;DHT22;10399;50.754;3.366;2023-03-04T05:54:07;8.40;99.90
20481;DHT22;10399;50.754;3.366;2023-03-04T05:56:34;8.40;99.90
20481;DHT22;10399;50.754;3.366;2023-03-04T05:59:01;8.30;99.90
20481;DHT22;10399;50.754;3.366;2023-03-04T06:01:28;8.30;99.90
20481;DHT22;10399;50.754;3.366;2023-03-04T06:03:57;8.30;99.90
20481;DHT22;10399;50.754;3.366;2023-03-04T06:06:24;8.30;99.90
20481;DHT22;10399;50.754;3.366;2023-03-04T06:08:51;8.40;99.90
20481;DHT22;10399;50.754;3.366;2023-03-04T06:11:18;8.40;99.90
20481;DHT22;10399;50.754;3.366;2023-03-04T06:13:45;8.40;99.90
20481;DHT22;10399;50.754;3.366;2023-03-04T06:16:12;8.30;99.90
20481;DHT22;10399;50.754;3.366;2023-03-04T06:18:40;8.30;99.90
20481;DHT22;10399;50.754;3.366;2023-03-04T06:21:06;8.30;99.90
20481;DHT22;10399;50.754;3.366;2023-03-04T06:23:33;8.30;99.90
20481;DHT22;10399;50.754;3.366;2023-03-04T06:26:01;8.30;99.90
20481;DHT22;10399;50.754;3.366;2023-03-04T06:28:28;8.40;99.90
20481;DHT22;10399;50.754;3.366;2023-03-04T06:30:56;8.50;99.90
20481;DHT22;10399;50.754;3.366;2023-03-04T06:33:23;8.40;99.90
20481;DHT22;10399;50.754;3.366;2023-03-04T06:35:55;8.30;99.90
20481;DHT22;10399;50.754;3.366;2023-03-04T06:38:23;8.30;99.90
20481;DHT22;10399;50.754;3.366;2023-03-04T06:40:50;8.20;99.90
20481;DHT22;10399;50.754;3.366;2023-03-04T06:43:18;8.20;99.90
20481;DHT22;10399;50.754;3.366;2023-03-04T06:45:45;8.10;99.90
20481;DHT22;10399;50.754;3.366;2023-03-04T06:48:12;8.20;99.90
20481;DHT22;10399;50.754;3.366;2023-03-04T06:50:40;8.20;99.90
20481;DHT22;10399;50.754;3.366;2023-03-04T06:53:06;8.10;99.90
20481;DHT22;10399;50.754;3.366;2023-03-04T06:55:33;8.20;99.90
20481;DHT22;10399;50.754;3.366;2023-03-04T06:58:00;8.30;99.90
20481;DHT22;10399;50.754;3.366;2023-03-04T07:00:27;8.30;99.90
20481;DHT22;10399;50.754;3.366;2023-03-04T07:02:54;8.30;99.90
20481;DHT22;10399;50.754;3.366;2023-03-04T07:05:21;8.40;99.90
20481;DHT22;10399;50.754;3.366;2023-03-04T07:07:48;8.30;99.90
20481;DHT22;10399;50.754;3.366;2023-03-04T07:10:17;8.30;99.90
20481;DHT22;10399;50.754;3.366;2023-03-04T07:12:44;8.50;99.90
20481;DHT22;10399;50.754;3.366;2023-03-04T07:15:11;8.50;99.90
20481;DHT22;10399;50.754;3.366;2023-03-04T07:17:38;8.50;99.90
20481;DHT22;10399;50.754;3.366;2023-03-04T07:20:06;8.50;99.90
20481;DHT22;10399;50.754;3.366;2023-03-04T07:22:33;8.40;99.90
20481;DHT22;10399;50.754;3.366;2023-03-04T07:25:00;8.40;99.90
20481;DHT22;10399;50.754;3.366;2023-03-04T07:27:27;8.50;99.90
20481;DHT22;10399;50.754;3.366;2023-03-04T07:29:54;8.50;99.90
20481;DHT22;10399;50.754;3.366;2023-03-04T07:32:21;8.50;99.90
20481;DHT22;10399;50.754;3.366;2023-03-04T07:34:49;8.50;99.90
20481;DHT22;10399;50.754;3.366;2023-03-04T07:37:17;8.60;99.90
20481;DHT22;10399;50.754;3.366;2023-03-04T07:39:44;8.60;99.90
20481;DHT22;10399;50.754;3.366;2023-03-04T07:42:11;8.60;99.90
20481;DHT22;10399;50.754;3.366;2023-03-04T07:44:38;8.70;99.90
20481;DHT22;10399;50.754;3.366;2023-03-04T07:47:05;8.50;99.90
20481;DHT22;10399;50.754;3.366;2023-03-04T07:49:32;8.60;99.90
20481;DHT22;10399;50.754;3.366;2023-03-04T07:52:02;8.70;99.90
20481;DHT22;10399;50.754;3.366;2023-03-04T07:54:29;8.70;99.90
20481;DHT22;10399;50.754;3.366;2023-03-04T07:56:57;8.60;99.90
20481;DHT22;10399;50.754;3.366;2023-03-04T07:59:23;8.50;99.90
20481;DHT22;10399;50.754;3.366;2023-03-04T08:01:50;8.60;99.90
20481;DHT22;10399;50.754;3.366;2023-03-04T08:04:17;8.60;99.90
20481;DHT22;10399;50.754;3.366;2023-03-04T08:06:44;8.50;99.90
20481;DHT22;10399;50.754;3.366;2023-03-04T08:09:12;8.60;99.90
20481;DHT22;10399;50.754;3.366;2023-03-04T08:11:40;8.60;99.90
20481;DHT22;10399;50.754;3.366;2023-03-04T08:14:07;8.60;99.90
20481;DHT22;10399;50.754;3.366;2023-03-04T08:16:35;8.70;99.90
20481;DHT22;10399;50.754;3.366;2023-03-04T08:19:03;8.70;99.90
20481;DHT22;10399;50.754;3.366;2023-03-04T08:21:30;8.80;99.90
20481;DHT22;10399;50.754;3.366;2023-03-04T08:23:59;8.80;99.90
20481;DHT22;10399;50.754;3.366;2023-03-04T08:26:31;8.80;99.90
20481;DHT22;10399;50.754;3.366;2023-03-04T08:29:01;9.00;99.90
20481;DHT22;10399;50.754;3.366;2023-03-04T08:31:29;9.10;99.90
20481;DHT22;10399;50.754;3.366;2023-03-04T08:33:57;9.10;99.90
20481;DHT22;10399;50.754;3.366;2023-03-04T08:36:24;9.00;99.90
20481;DHT22;10399;50.754;3.366;2023-03-04T08:38:51;9.10;99.90
20481;DHT22;10399;50.754;3.366;2023-03-04T08:41:20;9.10;99.90
20481;DHT22;10399;50.754;3.366;2023-03-04T08:43:48;9.10;99.90
20481;DHT22;10399;50.754;3.366;2023-03-04T08:46:15;9.30;99.90
20481;DHT22;10399;50.754;3.366;2023-03-04T08:48:42;9.20;99.90
20481;DHT22;10399;50.754;3.366;2023-03-04T08:51:12;9.20;99.90
20481;DHT22;10399;50.754;3.366;2023-03-04T08:53:40;9.00;99.90
20481;DHT22;10399;50.754;3.366;2023-03-04T08:56:08;9.20;99.90
20481;DHT22;10399;50.754;3.366;2023-03-04T08:58:35;9.20;99.90
20481;DHT22;10399;50.754;3.366;2023-03-04T09:01:03;9.20;99.90
20481;DHT22;10399;50.754;3.366;2023-03-04T09:03:30;9.40;99.90
20481;DHT22;10399;50.754;3.366;2023-03-04T09:05:57;9.30;99.90
20481;DHT22;10399;50.754;3.366;2023-03-04T09:08:24;9.40;99.90
20481;DHT22;10399;50.754;3.366;2023-03-04T09:10:53;9.50;99.90
20481;DHT22;10399;50.754;3.366;2023-03-04T09:13:21;9.50;99.90
20481;DHT22;10399;50.754;3.366;2023-03-04T09:15:52;9.60;99.90
20481;DHT22;10399;50.754;3.366;2023-03-04T09:18:20;9.60;99.90
20481;DHT22;10399;50.754;3.366;2023-03-04T09:20:48;9.60;99.90
20481;DHT22;10399;50.754;3.366;2023-03-04T09:23:15;9.60;99.90
20481;DHT22;10399;50.754;3.366;2023-03-04T09:25:43;9.50;99.90
20481;DHT22;10399;50.754;3.366;2023-03-04T09:28:13;9.60;99.90
20481;DHT22;10399;50.754;3.366;2023-03-04T09:30:41;9.40;99.90
20481;DHT22;10399;50.754;3.366;2023-03-04T09:33:08;9.30;99.90
20481;DHT22;10399;50.754;3.366;2023-03-04T09:35:36;9.40;99.90
20481;DHT22;10399;50.754;3.366;2023-03-04T09:38:03;9.40;99.90
20481;DHT22;10399;50.754;3.366;2023-03-04T09:40:45;9.40;99.90
20481;DHT22;10399;50.754;3.366;2023-03-04T09:43:24;9.60;99.90
20481;DHT22;10399;50.754;3.366;2023-03-04T09:46:03;9.70;99.90
20481;DHT22;10399;50.754;3.366;2023-03-04T09:48:38;9.80;99.90
20481;DHT22;10399;50.754;3.366;2023-03-04T09:53:42;9.70;99.90
20481;DHT22;10399;50.754;3.366;2023-03-04T09:56:13;9.60;99.90
20481;DHT22;10399;50.754;3.366;2023-03-04T10:01:33;9.70;99.90
20481;DHT22;10399;50.754;3.366;2023-03-04T10:04:47;9.70;99.90
20481;DHT22;10399;50.754;3.366;2023-03-04T10:07:03;9.60;99.90
20481;DHT22;10399;50.754;3.366;2023-03-04T10:09:48;9.60;99.90
20481;DHT22;10399;50.754;3.366;2023-03-04T10:12:19;9.50;99.90
20481;DHT22;10399;50.754;3.366;2023-03-04T10:15:00;9.60;99.90
20481;DHT22;10399;50.754;3.366;2023-03-04T10:17:30;9.70;99.90
20481;DHT22;10399;50.754;3.366;2023-03-04T10:22:47;9.90;99.90
20481;DHT22;10399;50.754;3.366;2023-03-04T10:27:51;10.20;99.90
20481;DHT22;10399;50.754;3.366;2023-03-04T10:30:39;10.20;99.90
20481;DHT22;10399;50.754;3.366;2023-03-04T10:33:22;10.40;99.90
20481;DHT22;10399;50.754;3.366;2023-03-04T10:38:44;10.60;99.90
20481;DHT22;10399;50.754;3.366;2023-03-04T10:41:22;10.50;99.90
20481;DHT22;10399;50.754;3.366;2023-03-04T10:46:38;10.60;99.90
20481;DHT22;10399;50.754;3.366;2023-03-04T10:49:06;10.50;99.90
20481;DHT22;10399;50.754;3.366;2023-03-04T10:51:41;10.40;99.90
20481;DHT22;10399;50.754;3.366;2023-03-04T10:59:54;10.40;99.90
20481;DHT22;10399;50.754;3.366;2023-03-04T11:02:25;10.20;99.90
20481;DHT22;10399;50.754;3.366;2023-03-04T11:07:52;10.10;99.90
20481;DHT22;10399;50.754;3.366;2023-03-04T11:15:22;9.80;99.90
20481;DHT22;10399;50.754;3.366;2023-03-04T11:18:04;10.00;99.90
20481;DHT22;10399;50.754;3.366;2023-03-04T11:20:32;10.10;99.90
20481;DHT22;10399;50.754;3.366;2023-03-04T11:23:08;10.10;99.90
20481;DHT22;10399;50.754;3.366;2023-03-04T11:25:43;10.20;99.90
20481;DHT22;10399;50.754;3.366;2023-03-04T11:28:17;10.30;99.90
20481;DHT22;10399;50.754;3.366;2023-03-04T11:30:51;10.30;99.90
20481;DHT22;10399;50.754;3.366;2023-03-04T11:33:25;10.40;99.90
20481;DHT22;10399;50.754;3.366;2023-03-04T11:36:12;10.40;99.90
20481;DHT22;10399;50.754;3.366;2023-03-04T11:38:49;10.50;99.90
20481;DHT22;10399;50.754;3.366;2023-03-04T11:41:27;10.40;99.90
20481;DHT22;10399;50.754;3.366;2023-03-04T11:43:56;10.30;99.90
20481;DHT22;10399;50.754;3.366;2023-03-04T11:57:28;10.30;99.90
20481;DHT22;10399;50.754;3.366;2023-03-04T12:02:46;10.60;99.90
20481;DHT22;10399;50.754;3.366;2023-03-04T12:11:00;12.20;99.90
20481;DHT22;10399;50.754;3.366;2023-03-04T12:13:46;12.70;99.90
20481;DHT22;10399;50.754;3.366;2023-03-04T12:16:30;12.80;99.90
20481;DHT22;10399;50.754;3.366;2023-03-04T12:38:28;11.60;99.90
20481;DHT22;10399;50.754;3.366;2023-03-04T12:46:57;11.50;99.90
20481;DHT22;10399;50.754;3.366;2023-03-04T12:50:07;11.50;99.90
20481;DHT22;10399;50.754;3.366;2023-03-04T12:55:22;11.40;99.90
20481;DHT22;10399;50.754;3.366;2023-03-04T12:57:54;11.50;99.90
20481;DHT22;10399;50.754;3.366;2023-03-04T13:08:39;11.00;99.90
20481;DHT22;10399;50.754;3.366;2023-03-04T13:16:29;11.00;99.90
20481;DHT22;10399;50.754;3.366;2023-03-04T13:18:58;10.90;99.90
20481;DHT22;10399;50.754;3.366;2023-03-04T13:21:27;10.80;99.90
20481;DHT22;10399;50.754;3.366;2023-03-04T13:23:55;10.80;99.90
20481;DHT22;10399;50.754;3.366;2023-03-04T13:26:32;10.90;99.90
20481;DHT22;10399;50.754;3.366;2023-03-04T13:32:08;11.00;99.90
20481;DHT22;10399;50.754;3.366;2023-03-04T13:37:26;11.00;99.90
20481;DHT22;10399;50.754;3.366;2023-03-04T13:40:31;11.10;99.90
20481;DHT22;10399;50.754;3.366;2023-03-04T13:51:26;11.40;99.90
20481;DHT22;10399;50.754;3.366;2023-03-04T14:01:53;11.50;99.90
20481;DHT22;10399;50.754;3.366;2023-03-04T14:04:36;11.60;99.90
20481;DHT22;10399;50.754;3.366;2023-03-04T14:07:25;12.10;99.90
20481;DHT22;10399;50.754;3.366;2023-03-04T14:12:29;12.90;99.90
20481;DHT22;10399;50.754;3.366;2023-03-04T14:14:59;12.80;99.90
20481;DHT22;10399;50.754;3.366;2023-03-04T14:17:34;12.50;99.90
20481;DHT22;10399;50.754;3.366;2023-03-04T14:22:50;12.20;99.90
20481;DHT22;10399;50.754;3.366;2023-03-04T14:28:00;11.90;99.90
20481;DHT22;10399;50.754;3.366;2023-03-04T14:30:31;11.80;99.90
20481;DHT22;10399;50.754;3.366;2023-03-04T14:33:15;11.70;99.90
20481;DHT22;10399;50.754;3.366;2023-03-04T14:35:52;11.70;99.90
20481;DHT22;10399;50.754;3.366;2023-03-04T14:38:26;11.60;99.90
20481;DHT22;10399;50.754;3.366;2023-03-04T14:41:13;11.70;99.90
20481;DHT22;10399;50.754;3.366;2023-03-04T14:46:37;11.40;99.90
20481;DHT22;10399;50.754;3.366;2023-03-04T14:49:10;11.20;99.90
20481;DHT22;10399;50.754;3.366;2023-03-04T14:51:42;11.20;99.90
20481;DHT22;10399;50.754;3.366;2023-03-04T14:57:20;11.10;99.90
20481;DHT22;10399;50.754;3.366;2023-03-04T14:59:53;11.20;99.90
20481;DHT22;10399;50.754;3.366;2023-03-04T15:02:29;11.00;99.90
20481;DHT22;10399;50.754;3.366;2023-03-04T15:05:08;11.00;99.90
20481;DHT22;10399;50.754;3.366;2023-03-04T15:07:43;11.00;99.90
20481;DHT22;10399;50.754;3.366;2023-03-04T15:10:28;11.00;99.90
20481;DHT22;10399;50.754;3.366;2023-03-04T15:12:58;10.90;99.90
20481;DHT22;10399;50.754;3.366;2023-03-04T15:15:42;10.80;99.90
20481;DHT22;10399;50.754;3.366;2023-03-04T15:18:22;10.80;99.90
20481;DHT22;10399;50.754;3.366;2023-03-04T15:21:02;10.90;99.90
20481;DHT22;10399;50.754;3.366;2023-03-04T15:23:31;10.70;99.90
20481;DHT22;10399;50.754;3.366;2023-03-04T15:26:01;10.70;99.90
20481;DHT22;10399;50.754;3.366;2023-03-04T15:28:35;10.70;99.90
20481;DHT22;10399;50.754;3.366;2023-03-04T15:31:04;10.80;99.90
20481;DHT22;10399;50.754;3.366;2023-03-04T15:33:31;10.90;99.90
20481;DHT22;10399;50.754;3.366;2023-03-04T15:36:01;10.70;99.90
20481;DHT22;10399;50.754;3.366;2023-03-04T15:38:29;10.90;99.90
20481;DHT22;10399;50.754;3.366;2023-03-04T15:40:59;10.90;99.90
20481;DHT22;10399;50.754;3.366;2023-03-04T15:43:26;10.90;99.90
20481;DHT22;10399;50.754;3.366;2023-03-04T15:45:53;11.10;99.90
20481;DHT22;10399;50.754;3.366;2023-03-04T15:48:20;11.10;99.90
20481;DHT22;10399;50.754;3.366;2023-03-04T15:50:58;11.50;99.90
20481;DHT22;10399;50.754;3.366;2023-03-04T15:53:37;11.60;99.90
20481;DHT22;10399;50.754;3.366;2023-03-04T15:56:11;11.50;99.90
20481;DHT22;10399;50.754;3.366;2023-03-04T15:58:39;11.50;99.90
20481;DHT22;10399;50.754;3.366;2023-03-04T16:01:06;11.50;99.90
20481;DHT22;10399;50.754;3.366;2023-03-04T16:03:33;11.40;99.90
20481;DHT22;10399;50.754;3.366;2023-03-04T16:06:10;11.30;99.90
20481;DHT22;10399;50.754;3.366;2023-03-04T16:08:39;11.00;99.90
20481;DHT22;10399;50.754;3.366;2023-03-04T16:11:14;11.00;99.90
20481;DHT22;10399;50.754;3.366;2023-03-04T16:13:42;11.10;99.90
20481;DHT22;10399;50.754;3.366;2023-03-04T16:16:10;11.20;99.90
20481;DHT22;10399;50.754;3.366;2023-03-04T16:18:38;11.00;99.90
20481;DHT22;10399;50.754;3.366;2023-03-04T16:21:09;10.90;99.90
20481;DHT22;10399;50.754;3.366;2023-03-04T16:23:39;10.80;99.90
20481;DHT22;10399;50.754;3.366;2023-03-04T16:26:14;10.60;99.90
20481;DHT22;10399;50.754;3.366;2023-03-04T16:28:43;10.70;99.90
20481;DHT22;10399;50.754;3.366;2023-03-04T16:31:12;10.70;99.90
20481;DHT22;10399;50.754;3.366;2023-03-04T16:33:39;10.60;99.90
20481;DHT22;10399;50.754;3.366;2023-03-04T16:36:32;10.60;99.90
20481;DHT22;10399;50.754;3.366;2023-03-04T16:39:05;10.70;99.90
20481;DHT22;10399;50.754;3.366;2023-03-04T16:41:35;10.60;99.90
20481;DHT22;10399;50.754;3.366;2023-03-04T16:44:02;10.60;99.90
20481;DHT22;10399;50.754;3.366;2023-03-04T16:46:30;10.70;99.90
20481;DHT22;10399;50.754;3.366;2023-03-04T16:48:57;10.50;99.90
20481;DHT22;10399;50.754;3.366;2023-03-04T16:51:24;10.50;99.90
20481;DHT22;10399;50.754;3.366;2023-03-04T16:53:53;10.60;99.90
20481;DHT22;10399;50.754;3.366;2023-03-04T16:56:22;10.60;99.90
20481;DHT22;10399;50.754;3.366;2023-03-04T16:58:49;10.60;99.90
20481;DHT22;10399;50.754;3.366;2023-03-04T17:03:48;10.50;99.90
20481;DHT22;10399;50.754;3.366;2023-03-04T17:06:15;10.50;99.90
20481;DHT22;10399;50.754;3.366;2023-03-04T17:08:42;10.50;99.90
20481;DHT22;10399;50.754;3.366;2023-03-04T17:11:19;10.60;99.90
20481;DHT22;10399;50.754;3.366;2023-03-04T17:13:46;10.50;99.90
20481;DHT22;10399;50.754;3.366;2023-03-04T17:16:14;10.40;99.90
20481;DHT22;10399;50.754;3.366;2023-03-04T17:18:41;10.30;99.90
20481;DHT22;10399;50.754;3.366;2023-03-04T17:21:12;10.30;99.90
20481;DHT22;10399;50.754;3.366;2023-03-04T17:23:39;10.20;99.90
20481;DHT22;10399;50.754;3.366;2023-03-04T17:26:06;10.20;99.90
20481;DHT22;10399;50.754;3.366;2023-03-04T17:28:35;10.20;99.90
20481;DHT22;10399;50.754;3.366;2023-03-04T17:31:08;10.20;99.90
20481;DHT22;10399;50.754;3.366;2023-03-04T17:33:36;10.20;99.90
20481;DHT22;10399;50.754;3.366;2023-03-04T17:36:03;10.20;99.90
20481;DHT22;10399;50.754;3.366;2023-03-04T17:38:30;10.10;99.90
20481;DHT22;10399;50.754;3.366;2023-03-04T17:41:05;9.90;99.90
20481;DHT22;10399;50.754;3.366;2023-03-04T17:43:37;9.90;99.90
20481;DHT22;10399;50.754;3.366;2023-03-04T17:46:07;9.80;99.90
20481;DHT22;10399;50.754;3.366;2023-03-04T17:48:35;9.80;99.90
20481;DHT22;10399;50.754;3.366;2023-03-04T17:51:02;9.80;99.90
20481;DHT22;10399;50.754;3.366;2023-03-04T17:53:30;9.70;99.90
20481;DHT22;10399;50.754;3.366;2023-03-04T17:55:59;9.70;99.90
20481;DHT22;10399;50.754;3.366;2023-03-04T17:58:31;9.80;99.90
20481;DHT22;10399;50.754;3.366;2023-03-04T18:03:28;9.80;99.90
20481;DHT22;10399;50.754;3.366;2023-03-04T18:05:56;9.90;99.90
20481;DHT22;10399;50.754;3.366;2023-03-04T18:08:23;9.90;99.90
20481;DHT22;10399;50.754;3.366;2023-03-04T18:10:50;9.80;99.90
20481;DHT22;10399;50.754;3.366;2023-03-04T18:13:17;9.80;99.90
20481;DHT22;10399;50.754;3.366;2023-03-04T18:15:44;9.70;99.90
20481;DHT22;10399;50.754;3.366;2023-03-04T18:18:12;9.70;99.90
20481;DHT22;10399;50.754;3.366;2023-03-04T18:20:39;9.70;99.90